EGJA/ACI METAR and TAF weather

Enter ICAO airport designator
Station Type Date Time Source
EGJA METAR 2020/04/04 12:20 UTC NOAA

EGJA 041220Z 15009KT 9999 FEW025 13/08 Q1019


Station Type Date Time Source
EGJA Decoded METAR 2020/04/04 12:20 UTC NOAA

Alderney / Channel Island, United Kingdom (EGJA) 49-43N 002-12W
Apr 04, 2020 - 08:20 AM EDT / 2020.04.04 1220 UTC
Wind: from the SSE (150 degrees) at 10 MPH (9 KT):0
Visibility: greater than 7 mile(s):0
Sky conditions: mostly clear
Temperature: 55 F (13 C)
Dew Point: 46 F (8 C)
Relative Humidity: 71%
Pressure (altimeter): 30.09 in. Hg (1019 hPa)
ob: EGJA 041220Z 15009KT 9999 FEW025 13/08 Q1019
cycle: 12

Station Type Date Time Source
EGJA TAF UTC NOAA

Error!

Example: see airport list